createdAt,value
2017-10-26T00:00:31.601Z,10.50
2017-10-26T00:02:59.412Z,10.40
2017-10-26T00:05:27.189Z,10.30
2017-10-26T00:07:54.994Z,10.30
2017-10-26T00:10:22.903Z,10.30
2017-10-26T00:12:50.652Z,10.30
2017-10-26T00:15:18.419Z,10.20
2017-10-26T00:17:46.311Z,10.30
2017-10-26T00:20:14.084Z,10.30
2017-10-26T00:22:41.942Z,10.90
2017-10-26T00:25:09.866Z,10.80
2017-10-26T00:27:37.813Z,11.10
2017-10-26T00:30:05.736Z,11.30
2017-10-26T00:32:35.403Z,11.30
2017-10-26T00:35:03.224Z,11.40
2017-10-26T00:37:31.278Z,11.20
2017-10-26T00:39:59.347Z,11.10
2017-10-26T00:42:27.215Z,10.90
2017-10-26T00:44:55.089Z,10.80
2017-10-26T00:47:23.276Z,10.80
2017-10-26T00:49:51.133Z,10.80
2017-10-26T00:52:18.994Z,10.80
2017-10-26T00:54:46.959Z,11.10
2017-10-26T00:57:14.914Z,11.40
2017-10-26T00:59:42.996Z,11.30
2017-10-26T01:02:10.868Z,11.10
2017-10-26T01:04:38.879Z,11.00
2017-10-26T01:07:06.889Z,10.70
2017-10-26T01:09:35.293Z,10.80
2017-10-26T01:12:03.152Z,10.80
2017-10-26T01:14:31.001Z,10.60
2017-10-26T01:16:58.879Z,10.30
2017-10-26T01:19:26.751Z,10.10
2017-10-26T01:21:54.700Z,10.00
2017-10-26T01:24:22.935Z,9.90
2017-10-26T01:26:51.663Z,9.70
2017-10-26T01:29:19.748Z,9.70
2017-10-26T01:31:47.704Z,9.50
2017-10-26T01:34:15.759Z,9.60
2017-10-26T01:36:43.846Z,9.60
2017-10-26T01:39:12.019Z,9.30
2017-10-26T01:41:40.571Z,9.20
2017-10-26T01:44:08.415Z,9.30
2017-10-26T01:46:37.261Z,9.70
2017-10-26T01:49:05.208Z,9.70
2017-10-26T01:51:33.315Z,9.70
2017-10-26T01:54:01.187Z,9.50
2017-10-26T01:56:29.051Z,9.30
2017-10-26T01:58:57.000Z,9.30
2017-10-26T02:01:25.169Z,9.40
2017-10-26T02:03:53.381Z,9.30
2017-10-26T02:06:22.773Z,9.00
2017-10-26T02:08:50.633Z,8.90
2017-10-26T02:11:18.435Z,9.00
2017-10-26T02:13:47.063Z,9.10
2017-10-26T02:16:14.927Z,9.10
2017-10-26T02:18:42.967Z,9.10
2017-10-26T02:21:11.082Z,9.10
2017-10-26T02:23:38.966Z,9.00
2017-10-26T02:26:07.033Z,9.20
2017-10-26T02:28:46.976Z,9.40
2017-10-26T02:31:26.520Z,9.30
2017-10-26T02:33:54.480Z,9.30
2017-10-26T02:36:22.336Z,9.40
2017-10-26T02:38:50.318Z,9.50
2017-10-26T02:41:18.199Z,9.70
2017-10-26T02:43:46.141Z,9.60
2017-10-26T02:46:14.314Z,9.70
2017-10-26T02:48:42.399Z,9.90
2017-10-26T02:51:10.190Z,9.80
2017-10-26T02:56:12.968Z,9.70
2017-10-26T02:58:41.443Z,9.60
2017-10-26T03:01:09.519Z,9.50
2017-10-26T03:03:37.351Z,9.50
2017-10-26T03:06:05.449Z,9.40
2017-10-26T03:08:33.314Z,9.60
2017-10-26T03:11:01.396Z,9.70
2017-10-26T03:13:29.256Z,9.90
2017-10-26T03:15:57.426Z,10.10
2017-10-26T03:18:25.226Z,10.30
2017-10-26T03:20:53.978Z,10.10
2017-10-26T03:23:21.879Z,10.10
2017-10-26T03:25:50.535Z,10.10
2017-10-26T03:28:18.509Z,10.20
2017-10-26T03:30:47.755Z,10.20
2017-10-26T03:33:15.777Z,10.20
2017-10-26T03:35:44.471Z,10.10
2017-10-26T03:38:12.416Z,10.10
2017-10-26T03:40:40.295Z,10.10
2017-10-26T03:43:08.068Z,10.00
2017-10-26T03:45:36.296Z,9.90
2017-10-26T03:48:04.304Z,9.80
2017-10-26T03:50:32.067Z,9.70
2017-10-26T03:52:59.963Z,9.80
2017-10-26T03:55:28.834Z,10.10
2017-10-26T03:57:56.689Z,10.00
2017-10-26T04:00:25.216Z,10.00
2017-10-26T04:02:53.755Z,10.20
2017-10-26T04:05:21.816Z,10.20
2017-10-26T04:07:49.817Z,10.10
2017-10-26T04:10:18.369Z,10.00
2017-10-26T04:12:46.350Z,10.00
2017-10-26T04:15:14.359Z,10.40
2017-10-26T04:17:42.761Z,10.40
2017-10-26T04:20:10.573Z,10.40
2017-10-26T04:22:38.404Z,10.40
2017-10-26T04:25:06.303Z,10.50
2017-10-26T04:27:34.163Z,10.50
2017-10-26T04:30:01.955Z,10.50
2017-10-26T04:32:30.825Z,10.60
2017-10-26T04:34:58.608Z,10.60
2017-10-26T04:37:27.378Z,10.40
2017-10-26T04:39:55.317Z,10.40
2017-10-26T04:42:23.162Z,10.20
2017-10-26T04:44:50.967Z,9.90
2017-10-26T04:47:19.023Z,9.70
2017-10-26T04:49:46.798Z,9.50
2017-10-26T04:52:14.665Z,9.50
2017-10-26T04:54:42.416Z,9.40
2017-10-26T04:57:10.203Z,9.60
2017-10-26T04:59:37.967Z,9.50
2017-10-26T05:02:05.819Z,9.40
2017-10-26T05:04:33.674Z,9.50
2017-10-26T05:07:02.485Z,9.20
2017-10-26T05:09:31.313Z,9.20
2017-10-26T05:11:59.320Z,9.20
2017-10-26T05:14:27.304Z,9.20
2017-10-26T05:16:55.072Z,9.20
2017-10-26T05:19:22.818Z,9.20
2017-10-26T05:21:50.682Z,8.90
2017-10-26T05:24:18.767Z,8.80
2017-10-26T05:26:46.632Z,8.50
2017-10-26T05:29:14.610Z,8.30
2017-10-26T05:31:42.386Z,8.10
2017-10-26T05:34:10.236Z,8.00
2017-10-26T05:36:38.265Z,7.90
2017-10-26T05:39:06.366Z,8.00
2017-10-26T05:41:34.353Z,8.00
2017-10-26T05:44:02.237Z,7.90
2017-10-26T05:46:30.100Z,7.80
2017-10-26T05:48:57.870Z,7.80
2017-10-26T05:51:26.439Z,7.70
2017-10-26T05:53:55.321Z,7.70
2017-10-26T05:56:24.275Z,7.80
2017-10-26T05:58:52.290Z,7.80
2017-10-26T06:01:20.146Z,8.20
2017-10-26T06:03:48.278Z,8.30
2017-10-26T06:06:16.168Z,8.40
2017-10-26T06:08:44.035Z,8.50
2017-10-26T06:11:11.920Z,8.50
2017-10-26T06:13:39.878Z,8.50
2017-10-26T06:16:07.740Z,8.50
2017-10-26T06:18:35.808Z,8.60
2017-10-26T06:21:03.797Z,8.70
2017-10-26T06:23:31.749Z,8.70
2017-10-26T06:26:00.642Z,8.80
2017-10-26T06:28:28.914Z,8.80
2017-10-26T06:30:56.798Z,8.80
2017-10-26T06:33:24.753Z,8.70
2017-10-26T06:35:53.304Z,8.60
2017-10-26T06:38:21.247Z,8.60
2017-10-26T06:40:49.783Z,8.70
2017-10-26T06:43:17.754Z,8.60
2017-10-26T06:45:45.823Z,8.80
2017-10-26T06:48:13.714Z,8.90
2017-10-26T06:50:41.762Z,8.90
2017-10-26T06:53:09.831Z,9.00
2017-10-26T06:55:37.712Z,9.10
2017-10-26T06:58:05.668Z,9.10
2017-10-26T07:00:33.608Z,9.20
2017-10-26T07:03:01.716Z,9.30
2017-10-26T07:05:29.701Z,9.30
2017-10-26T07:07:57.650Z,9.50
2017-10-26T07:10:25.618Z,9.60
2017-10-26T07:12:53.690Z,9.80
2017-10-26T07:15:21.563Z,10.00
2017-10-26T07:17:49.622Z,10.40
2017-10-26T07:20:17.591Z,10.80
2017-10-26T07:22:45.613Z,11.30
2017-10-26T07:25:14.356Z,12.00
2017-10-26T07:27:42.318Z,12.00
2017-10-26T07:30:10.321Z,12.50
2017-10-26T07:32:38.462Z,12.50
2017-10-26T07:35:06.430Z,12.30
2017-10-26T07:37:34.392Z,12.60
2017-10-26T07:40:02.517Z,13.00
2017-10-26T07:42:31.257Z,13.30
2017-10-26T07:44:59.225Z,13.30
2017-10-26T07:47:27.296Z,13.50
2017-10-26T07:49:55.376Z,13.80
2017-10-26T07:52:24.570Z,14.10
2017-10-26T07:54:53.356Z,14.10
2017-10-26T07:57:21.543Z,13.70
2017-10-26T07:59:49.599Z,13.60
2017-10-26T08:02:17.709Z,13.10
2017-10-26T08:04:46.568Z,12.80
2017-10-26T08:07:14.741Z,12.90
2017-10-26T08:09:42.741Z,13.10
2017-10-26T08:12:11.497Z,13.30
2017-10-26T08:14:39.567Z,13.30
2017-10-26T08:17:07.634Z,13.60
2017-10-26T08:19:35.609Z,13.60
2017-10-26T08:22:03.782Z,13.60
2017-10-26T08:24:31.880Z,13.90
2017-10-26T08:26:59.928Z,14.10
2017-10-26T08:29:27.892Z,14.10
2017-10-26T08:31:55.860Z,13.90
2017-10-26T08:34:23.837Z,13.90
2017-10-26T08:36:51.897Z,13.80
2017-10-26T08:39:19.911Z,13.80
2017-10-26T08:41:48.656Z,13.70
2017-10-26T08:44:16.647Z,13.70
2017-10-26T08:46:44.624Z,13.60
2017-10-26T08:49:13.380Z,13.60
2017-10-26T08:51:41.462Z,13.50
2017-10-26T08:54:09.366Z,13.50
2017-10-26T08:56:38.133Z,13.70
2017-10-26T08:59:06.996Z,13.90
2017-10-26T09:01:35.170Z,13.90
2017-10-26T09:04:03.346Z,13.90
2017-10-26T09:06:31.523Z,13.90
2017-10-26T09:08:59.595Z,13.80
2017-10-26T09:11:27.705Z,13.70
2017-10-26T09:13:56.560Z,13.40
2017-10-26T09:16:24.724Z,13.40
2017-10-26T09:18:53.039Z,13.50
2017-10-26T09:21:21.993Z,13.70
2017-10-26T09:23:50.070Z,13.70
2017-10-26T09:26:18.147Z,13.80
2017-10-26T09:28:46.310Z,13.80
2017-10-26T09:31:14.484Z,13.90
2017-10-26T09:33:42.869Z,13.90
2017-10-26T09:36:11.080Z,14.10
2017-10-26T09:38:40.040Z,14.10
2017-10-26T09:41:08.036Z,14.10
2017-10-26T09:43:37.096Z,14.00
2017-10-26T09:46:05.110Z,14.00
2017-10-26T09:48:33.569Z,14.20
2017-10-26T09:51:01.627Z,14.30
2017-10-26T09:53:30.507Z,14.10
2017-10-26T09:55:58.650Z,14.00
2017-10-26T09:58:26.751Z,14.10
2017-10-26T10:00:55.024Z,14.20
2017-10-26T10:03:23.203Z,14.30
2017-10-26T10:05:51.271Z,14.50
2017-10-26T10:08:19.373Z,14.40
2017-10-26T10:10:47.359Z,14.40
2017-10-26T10:13:16.206Z,14.40
2017-10-26T10:15:44.282Z,14.40
2017-10-26T10:18:12.482Z,14.60
2017-10-26T10:20:41.338Z,14.70
2017-10-26T10:23:09.409Z,14.70
2017-10-26T10:25:38.298Z,14.50
2017-10-26T10:28:06.267Z,14.50
2017-10-26T10:30:34.236Z,14.50
2017-10-26T10:33:02.559Z,14.60
2017-10-26T10:35:31.399Z,14.80
2017-10-26T10:38:00.190Z,14.80
2017-10-26T10:40:28.265Z,14.90
2017-10-26T10:42:56.435Z,15.00
2017-10-26T10:45:24.509Z,15.10
2017-10-26T10:47:52.583Z,15.10
2017-10-26T10:50:20.596Z,15.20
2017-10-26T10:52:49.482Z,15.20
2017-10-26T10:55:18.230Z,15.00
2017-10-26T10:57:46.233Z,15.00
2017-10-26T11:00:19.792Z,15.10
2017-10-26T11:02:47.978Z,14.90
2017-10-26T11:05:16.042Z,14.90
2017-10-26T11:07:45.127Z,14.80
2017-10-26T11:10:13.310Z,14.80
2017-10-26T11:12:41.379Z,14.60
2017-10-26T11:15:09.552Z,14.30
2017-10-26T11:17:37.626Z,14.40
2017-10-26T11:20:05.903Z,14.30
2017-10-26T11:22:34.387Z,14.30
2017-10-26T11:25:02.351Z,14.40
2017-10-26T11:27:30.634Z,14.50
2017-10-26T11:29:58.705Z,14.60
2017-10-26T11:32:26.806Z,14.70
2017-10-26T11:34:54.842Z,14.70
2017-10-26T11:37:22.851Z,14.70
2017-10-26T11:39:51.703Z,14.70
2017-10-26T11:42:19.728Z,14.70
2017-10-26T11:44:48.559Z,14.70
2017-10-26T11:47:16.630Z,14.70
2017-10-26T11:49:44.754Z,14.80
2017-10-26T11:52:13.082Z,14.80
2017-10-26T11:54:41.155Z,14.90
2017-10-26T11:57:09.326Z,15.00
2017-10-26T11:59:37.399Z,15.00
2017-10-26T12:02:05.422Z,14.90
2017-10-26T12:04:34.263Z,15.00
2017-10-26T12:07:02.395Z,14.90
2017-10-26T12:09:30.326Z,14.90
2017-10-26T12:11:58.274Z,15.00
2017-10-26T12:14:26.342Z,15.00
2017-10-26T12:16:54.621Z,15.10
2017-10-26T12:19:22.691Z,15.00
2017-10-26T12:21:50.867Z,15.10
2017-10-26T12:24:18.949Z,15.40
2017-10-26T12:26:47.221Z,15.30
2017-10-26T12:29:15.384Z,15.30
2017-10-26T12:31:43.557Z,15.40
2017-10-26T12:34:11.668Z,15.70
2017-10-26T12:36:40.639Z,16.00
2017-10-26T12:39:08.792Z,15.90
2017-10-26T12:41:36.968Z,16.20
2017-10-26T12:44:05.140Z,16.30
2017-10-26T12:46:33.221Z,16.30
2017-10-26T12:49:01.185Z,16.30
2017-10-26T12:51:29.457Z,16.50
2017-10-26T12:53:57.865Z,16.60
2017-10-26T12:56:25.906Z,16.70
2017-10-26T12:58:54.432Z,16.90
2017-10-26T13:01:23.286Z,16.90
2017-10-26T13:03:51.461Z,16.90
2017-10-26T13:06:19.524Z,17.00
2017-10-26T13:08:47.601Z,17.20
2017-10-26T13:11:15.716Z,17.20
2017-10-26T13:13:44.559Z,17.20
2017-10-26T13:16:12.737Z,17.20
2017-10-26T13:18:40.919Z,17.30
2017-10-26T13:21:08.995Z,17.80
2017-10-26T13:23:37.052Z,18.10
2017-10-26T13:26:05.222Z,18.40
2017-10-26T13:28:33.191Z,18.70
2017-10-26T13:31:01.978Z,18.80
2017-10-26T13:33:29.953Z,19.00
2017-10-26T13:35:57.974Z,19.00
2017-10-26T13:38:26.915Z,19.10
2017-10-26T13:40:54.776Z,19.30
2017-10-26T13:43:22.846Z,19.70
2017-10-26T13:45:51.028Z,20.30
2017-10-26T13:48:19.089Z,20.30
2017-10-26T13:50:47.175Z,20.20
2017-10-26T13:53:15.334Z,20.70
2017-10-26T13:55:43.310Z,20.90
2017-10-26T13:58:11.378Z,20.70
2017-10-26T14:00:39.551Z,20.70
2017-10-26T14:03:07.626Z,20.80
2017-10-26T14:05:35.592Z,20.70
2017-10-26T14:08:03.503Z,20.50
2017-10-26T14:10:32.348Z,20.70
2017-10-26T14:13:00.322Z,20.70
2017-10-26T14:15:28.287Z,19.90
2017-10-26T14:17:56.260Z,19.60
2017-10-26T14:20:24.225Z,19.90
2017-10-26T14:22:53.014Z,20.30
2017-10-26T14:25:20.955Z,20.70
2017-10-26T14:27:49.053Z,20.60
2017-10-26T14:30:17.228Z,20.60
2017-10-26T14:32:46.174Z,20.50
2017-10-26T14:35:14.190Z,20.20
2017-10-26T14:37:42.187Z,20.00
2017-10-26T14:40:10.245Z,20.00
2017-10-26T14:42:38.542Z,19.90
2017-10-26T14:45:07.290Z,20.40
2017-10-26T14:47:35.195Z,20.30
2017-10-26T14:50:04.986Z,20.50
2017-10-26T14:52:33.860Z,20.70
2017-10-26T14:55:01.982Z,20.70
2017-10-26T14:57:30.723Z,20.60
2017-10-26T14:59:58.690Z,20.60
2017-10-26T15:02:26.700Z,20.50
2017-10-26T15:04:55.447Z,20.30
2017-10-26T15:07:23.519Z,20.30
2017-10-26T15:09:51.590Z,20.40
2017-10-26T15:12:19.560Z,20.20
2017-10-26T15:14:47.531Z,20.10
2017-10-26T15:17:15.496Z,19.90
2017-10-26T15:19:43.708Z,19.60
2017-10-26T15:22:13.591Z,19.10
2017-10-26T15:24:41.876Z,19.10
2017-10-26T15:27:10.033Z,18.60
2017-10-26T15:29:38.753Z,18.10
2017-10-26T15:32:07.443Z,17.10
2017-10-26T15:34:36.239Z,16.70
2017-10-26T15:37:05.855Z,16.20
2017-10-26T15:39:34.088Z,16.20
2017-10-26T15:42:02.087Z,15.90
2017-10-26T15:44:30.842Z,15.20
2017-10-26T15:46:59.051Z,15.20
2017-10-26T15:49:27.742Z,14.80
2017-10-26T15:51:56.582Z,14.80
2017-10-26T15:54:24.802Z,14.80
2017-10-26T15:56:53.547Z,14.50
2017-10-26T15:59:21.450Z,14.40
2017-10-26T16:01:50.196Z,14.10
2017-10-26T16:04:18.108Z,14.10
2017-10-26T16:06:46.961Z,13.90
2017-10-26T16:09:14.952Z,13.90
2017-10-26T16:11:42.905Z,13.90
2017-10-26T16:14:10.972Z,13.80
2017-10-26T16:16:38.974Z,13.60
2017-10-26T16:19:07.729Z,13.20
2017-10-26T16:21:35.694Z,13.20
2017-10-26T16:24:03.664Z,12.90
2017-10-26T16:26:31.742Z,12.80
2017-10-26T16:29:00.217Z,12.70
2017-10-26T16:31:28.291Z,12.60
2017-10-26T16:33:56.908Z,12.60
2017-10-26T16:36:25.611Z,12.40
2017-10-26T16:38:54.651Z,12.40
2017-10-26T16:41:22.656Z,12.30
2017-10-26T16:43:51.920Z,12.10
2017-10-26T16:46:19.813Z,12.10
2017-10-26T16:48:47.750Z,12.20
2017-10-26T16:51:15.644Z,12.10
2017-10-26T16:53:44.408Z,12.10
2017-10-26T16:56:12.479Z,12.00
2017-10-26T16:58:41.165Z,12.20
2017-10-26T17:01:09.133Z,12.30
2017-10-26T17:03:37.303Z,12.40
2017-10-26T17:06:05.482Z,12.40
2017-10-26T17:08:33.481Z,12.50
2017-10-26T17:11:01.522Z,12.40
2017-10-26T17:13:30.311Z,12.40
2017-10-26T17:15:58.304Z,12.50
2017-10-26T17:18:26.351Z,12.40
2017-10-26T17:20:54.319Z,12.40
2017-10-26T17:23:22.497Z,12.40
2017-10-26T17:25:50.568Z,12.30
2017-10-26T17:28:19.463Z,12.30
2017-10-26T17:30:47.560Z,12.40
2017-10-26T17:33:15.697Z,12.50
2017-10-26T17:35:44.217Z,12.50
2017-10-26T17:38:13.068Z,12.40
2017-10-26T17:40:41.345Z,12.40
2017-10-26T17:43:09.419Z,12.50
2017-10-26T17:45:37.898Z,12.40
2017-10-26T17:48:05.828Z,12.50
2017-10-26T17:50:34.007Z,12.50
2017-10-26T17:53:02.770Z,12.50
2017-10-26T17:55:31.516Z,12.50
2017-10-26T17:57:59.480Z,12.50
2017-10-26T18:00:27.553Z,12.50
2017-10-26T18:02:55.730Z,12.60
2017-10-26T18:05:24.818Z,12.70
2017-10-26T18:07:52.909Z,12.60
2017-10-26T18:10:21.006Z,12.70
2017-10-26T18:12:49.894Z,12.90
2017-10-26T18:15:18.068Z,12.90
2017-10-26T18:17:46.816Z,13.10
2017-10-26T18:20:14.726Z,13.10
2017-10-26T18:22:43.468Z,12.80
2017-10-26T18:25:11.553Z,12.80
2017-10-26T18:27:39.752Z,12.80
2017-10-26T18:30:07.733Z,12.90
2017-10-26T18:32:37.915Z,12.90
2017-10-26T18:35:05.905Z,12.90
2017-10-26T18:37:33.716Z,12.80
2017-10-26T18:40:01.724Z,13.00
2017-10-26T18:42:29.886Z,13.20
2017-10-26T18:44:57.877Z,13.20
2017-10-26T18:47:27.000Z,13.20
2017-10-26T18:49:55.753Z,13.50
2017-10-26T18:52:23.637Z,13.50
2017-10-26T18:54:52.441Z,13.60
2017-10-26T18:57:21.424Z,13.60
2017-10-26T18:59:50.113Z,13.60
2017-10-26T19:02:18.893Z,13.60
2017-10-26T19:04:47.745Z,13.60
2017-10-26T19:07:15.749Z,13.60
2017-10-26T19:09:43.719Z,13.40
2017-10-26T19:12:12.400Z,13.20
2017-10-26T19:14:40.339Z,13.20
2017-10-26T19:17:08.311Z,13.10
2017-10-26T19:19:36.592Z,13.10
2017-10-26T19:22:04.861Z,13.10
2017-10-26T19:24:32.930Z,13.00
2017-10-26T19:27:00.936Z,13.00
2017-10-26T19:29:28.871Z,12.80
2017-10-26T19:31:57.050Z,12.90
2017-10-26T19:34:25.020Z,12.70
2017-10-26T19:36:53.196Z,12.70
2017-10-26T19:39:21.160Z,12.70
2017-10-26T19:41:49.232Z,12.60
2017-10-26T19:44:24.372Z,12.50
2017-10-26T19:46:52.578Z,12.40
2017-10-26T19:49:21.478Z,12.30
2017-10-26T19:51:50.325Z,12.30
2017-10-26T19:54:18.287Z,12.30
2017-10-26T19:56:46.387Z,12.10
2017-10-26T19:59:14.562Z,12.00
2017-10-26T20:01:43.215Z,11.90
2017-10-26T20:04:11.388Z,12.10
2017-10-26T20:06:39.507Z,11.90
2017-10-26T20:09:08.252Z,12.00
2017-10-26T20:11:36.322Z,12.00
2017-10-26T20:14:04.291Z,12.00
2017-10-26T20:16:32.265Z,12.00
2017-10-26T20:19:00.235Z,11.90
2017-10-26T20:21:28.307Z,12.00
2017-10-26T20:23:56.377Z,12.10
2017-10-26T20:26:24.278Z,12.10
2017-10-26T20:28:53.027Z,12.30
2017-10-26T20:31:20.996Z,12.30
2017-10-26T20:33:48.974Z,12.20
2017-10-26T20:36:17.041Z,12.20
2017-10-26T20:38:45.048Z,12.10
2017-10-26T20:41:13.729Z,12.10
2017-10-26T20:43:42.486Z,12.10
2017-10-26T20:46:10.560Z,12.10
2017-10-26T20:48:38.617Z,12.20
2017-10-26T20:51:12.632Z,12.30
2017-10-26T20:53:46.125Z,12.20
2017-10-26T20:56:19.628Z,12.00
2017-10-26T20:58:53.637Z,11.90
2017-10-26T21:01:27.272Z,11.80
2017-10-26T21:04:10.259Z,11.70
2017-10-26T21:06:38.227Z,11.80
2017-10-26T21:09:11.725Z,11.70
2017-10-26T21:11:45.328Z,11.70
2017-10-26T21:14:19.038Z,11.80
2017-10-26T21:16:47.103Z,11.80
2017-10-26T21:19:15.064Z,11.80
2017-10-26T21:21:43.243Z,12.20
2017-10-26T21:24:11.430Z,12.30
2017-10-26T21:26:39.420Z,12.20
2017-10-26T21:29:07.505Z,12.10
2017-10-26T21:31:37.267Z,12.00
2017-10-26T21:34:05.276Z,12.00
2017-10-26T21:36:33.349Z,12.00
2017-10-26T21:39:02.812Z,11.80
2017-10-26T21:41:31.625Z,11.80
2017-10-26T21:43:59.708Z,11.70
2017-10-26T21:46:27.745Z,11.70
2017-10-26T21:48:55.712Z,11.60
2017-10-26T21:51:23.717Z,11.60
2017-10-26T21:53:51.753Z,11.50
2017-10-26T21:56:19.746Z,11.40
2017-10-26T21:58:47.699Z,11.20
2017-10-26T22:01:16.116Z,11.20
2017-10-26T22:03:44.975Z,11.60
2017-10-26T22:06:13.135Z,11.60
2017-10-26T22:08:41.308Z,11.70
2017-10-26T22:11:09.377Z,11.80
2017-10-26T22:13:37.553Z,12.00
2017-10-26T22:16:05.635Z,12.20
2017-10-26T22:18:34.924Z,12.30
2017-10-26T22:21:03.005Z,12.30
2017-10-26T22:23:31.170Z,12.10
2017-10-26T22:25:59.955Z,12.00
2017-10-26T22:28:28.026Z,11.80
2017-10-26T22:30:55.998Z,11.50
2017-10-26T22:33:23.964Z,11.30
2017-10-26T22:35:52.148Z,11.30
2017-10-26T22:38:20.108Z,11.20
2017-10-26T22:40:48.178Z,11.20
2017-10-26T22:43:16.084Z,11.40
2017-10-26T22:45:44.835Z,11.50
2017-10-26T22:48:12.804Z,11.60
2017-10-26T22:50:41.009Z,11.60
2017-10-26T22:53:08.871Z,11.50
2017-10-26T22:55:36.955Z,11.60
2017-10-26T22:58:05.727Z,11.60
2017-10-26T23:00:33.978Z,11.60
2017-10-26T23:03:01.951Z,11.70
2017-10-26T23:05:29.941Z,11.90
2017-10-26T23:07:58.190Z,11.90
2017-10-26T23:10:26.159Z,11.90
2017-10-26T23:12:54.335Z,11.80
2017-10-26T23:15:22.262Z,11.80
2017-10-26T23:17:51.206Z,11.90
2017-10-26T23:20:19.986Z,11.90
2017-10-26T23:22:48.053Z,11.80
2017-10-26T23:25:16.026Z,11.90
2017-10-26T23:27:43.990Z,12.00
2017-10-26T23:30:12.017Z,11.90
2017-10-26T23:32:39.957Z,11.90
2017-10-26T23:35:08.334Z,12.00
2017-10-26T23:37:37.093Z,12.00
2017-10-26T23:40:05.060Z,11.90
2017-10-26T23:42:33.033Z,11.90
2017-10-26T23:45:01.004Z,11.70
2017-10-26T23:47:29.073Z,11.70
2017-10-26T23:49:57.143Z,11.80
2017-10-26T23:52:25.112Z,11.80
2017-10-26T23:54:53.184Z,11.80
2017-10-26T23:57:21.099Z,11.70
2017-10-26T23:59:49.120Z,11.90
